Time;durP1;ratioP1;P1;durP2;ratioP2;P2;SDS_P1;SDS_P2;PMS_P1;PMS_P2;Temp;Humidity;BMP_temperature;BMP_pressure;BME280_temperature;BME280_humidity;BME280_pressure;Samples;Min_cycle;Max_cycle;Signal;HPM_P1;HPM_P2
2022/04/12 00:01:08;;;;;;;4.43;4.03;;;;;;;3.58;100.00;96226.25;5028301;28;105749;-65
2022/04/12 00:03:35;;;;;;;4.53;4.13;;;;;;;3.47;100.00;96224.28;5029416;28;101869;-65
2022/04/12 00:06:03;;;;;;;4.80;4.10;;;;;;;3.56;100.00;96224.84;5029272;28;105496;-65
2022/04/12 00:08:30;;;;;;;4.23;3.83;;;;;;;3.18;100.00;96226.66;5028432;28;104731;-65
2022/04/12 00:10:58;;;;;;;10.20;4.10;;;;;;;3.17;100.00;96225.03;5032738;28;101863;-65
2022/04/12 00:13:25;;;;;;;5.30;4.00;;;;;;;3.21;100.00;96224.41;5027656;27;105526;-65
2022/04/12 00:15:53;;;;;;;4.73;3.83;;;;;;;3.00;100.00;96222.06;5028846;28;102220;-65
2022/04/12 00:21:06;;;;;;;4.20;3.80;;;;;;;2.91;100.00;96209.38;5028672;28;105658;-65
2022/04/12 00:23:33;;;;;;;4.63;3.40;;;;;;;2.83;100.00;96209.59;5029141;28;102320;-65
2022/04/12 00:26:00;;;;;;;4.60;3.60;;;;;;;2.80;100.00;96210.81;5028864;28;104057;-65
2022/04/12 00:28:28;;;;;;;4.53;3.50;;;;;;;2.74;100.00;96203.75;5028211;28;104050;-65
2022/04/12 00:30:56;;;;;;;4.93;4.03;;;;;;;2.72;100.00;96210.22;5028770;28;102022;-65
2022/04/12 00:33:24;;;;;;;4.30;3.87;;;;;;;2.86;100.00;96206.56;5031757;28;105516;-65
2022/04/12 00:35:51;;;;;;;4.77;4.20;;;;;;;3.06;100.00;96204.69;5028842;28;101837;-65
2022/04/12 00:38:22;;;;;;;4.40;4.00;;;;;;;3.15;100.00;96196.34;5029936;28;102454;-65
2022/04/12 00:40:50;;;;;;;5.90;4.40;;;;;;;3.00;100.00;96195.00;5028217;28;105288;-65
2022/04/12 00:43:19;;;;;;;4.07;3.67;;;;;;;2.91;100.00;96199.69;5028751;28;102236;-65
2022/04/12 00:45:48;;;;;;;4.47;4.03;;;;;;;2.85;100.00;96191.81;5062659;27;105067;-65
2022/04/12 00:48:15;;;;;;;4.10;3.80;;;;;;;2.70;100.00;96205.19;5027956;28;106062;-65
2022/04/12 00:50:45;;;;;;;3.63;3.33;;;;;;;2.74;100.00;96206.38;5028528;28;101889;-65
2022/04/12 00:53:13;;;;;;;5.20;4.10;;;;;;;2.59;100.00;96203.22;5031547;28;105604;-65
2022/04/12 00:55:39;;;;;;;3.90;3.60;;;;;;;2.64;100.00;96208.66;5029663;28;102022;-65
2022/04/12 00:58:08;;;;;;;4.30;3.90;;;;;;;2.50;100.00;96203.59;5028436;28;104807;-65
2022/04/12 01:00:37;;;;;;;4.17;3.73;;;;;;;2.50;100.00;96207.06;5027544;28;105161;-65
2022/04/12 01:03:05;;;;;;;3.63;3.33;;;;;;;2.61;100.00;96208.22;5028324;28;101765;-65
2022/04/12 01:05:32;;;;;;;5.80;3.83;;;;;;;2.68;100.00;96214.28;5028541;28;105285;-65
2022/04/12 01:08:02;;;;;;;4.37;3.57;;;;;;;2.64;100.00;96202.59;5028072;28;105424;-65
2022/04/12 01:10:31;;;;;;;4.30;3.43;;;;;;;2.57;100.00;96204.41;5028318;28;101911;-65
2022/04/12 01:12:59;;;;;;;4.03;3.63;;;;;;;2.64;100.00;96211.28;5028241;28;103613;-65
2022/04/12 01:15:26;;;;;;;4.77;4.37;;;;;;;2.68;100.00;96206.41;5031082;28;103210;-65
2022/04/12 01:17:53;;;;;;;5.53;3.90;;;;;;;2.59;100.00;96205.00;5030044;27;102308;-65
2022/04/12 01:20:24;;;;;;;4.20;3.90;;;;;;;2.73;100.00;96203.97;5027530;28;105845;-65
2022/04/12 01:22:56;;;;;;;4.03;3.73;;;;;;;2.71;100.00;96206.81;5028011;28;101899;-65
2022/04/12 01:25:25;;;;;;;4.80;3.90;;;;;;;2.65;100.00;96194.50;5031779;28;105278;-65
2022/04/12 01:27:53;;;;;;;4.40;4.00;;;;;;;2.81;100.00;96201.94;5031146;28;105403;-65
2022/04/12 01:30:20;;;;;;;4.23;3.83;;;;;;;2.74;100.00;96197.72;5031672;28;102011;-65
2022/04/12 01:32:47;;;;;;;4.33;3.93;;;;;;;2.64;100.00;96194.72;5033469;27;102286;-65
2022/04/12 01:35:14;;;;;;;4.10;3.70;;;;;;;2.64;100.00;96194.72;5031004;28;104925;-65
2022/04/12 01:37:43;;;;;;;5.97;4.37;;;;;;;2.55;100.00;96183.63;5036425;28;101790;-65
2022/04/12 01:40:11;;;;;;;4.50;4.13;;;;;;;2.46;100.00;96179.59;5030873;28;105123;-65
2022/04/12 01:42:39;;;;;;;6.53;4.03;;;;;;;2.47;100.00;96180.41;5031836;28;101873;-65
2022/04/12 01:45:08;;;;;;;4.30;3.90;;;;;;;2.56;100.00;96181.81;5065173;27;105264;-65
2022/04/12 01:47:35;;;;;;;4.10;3.80;;;;;;;2.38;100.00;96181.63;5030865;28;106012;-65
2022/04/12 01:50:03;;;;;;;3.93;3.63;;;;;;;2.45;100.00;96179.78;5032908;27;101783;-65
2022/04/12 01:52:30;;;;;;;3.77;3.47;;;;;;;2.38;100.00;96171.97;5031382;28;105637;-65
2022/04/12 01:54:57;;;;;;;3.77;3.40;;;;;;;2.60;100.00;96178.56;5031300;28;102636;-65
2022/04/12 01:57:24;;;;;;;4.57;3.70;;;;;;;2.59;100.00;96170.91;5031450;28;102024;-65
2022/04/12 01:59:53;;;;;;;6.63;4.23;;;;;;;2.64;100.00;96168.47;5034043;28;105587;-65
2022/04/12 02:02:20;;;;;;;4.63;3.80;;;;;;;2.68;100.00;96159.16;5030830;28;101972;-65
2022/04/12 02:04:47;;;;;;;4.00;3.60;;;;;;;2.65;100.00;96155.13;5031350;28;104856;-65
2022/04/12 02:07:14;;;;;;;7.20;4.20;;;;;;;2.61;100.00;96156.56;5030474;28;105181;-65
2022/04/12 02:09:41;;;;;;;4.30;3.90;;;;;;;2.60;100.00;96154.94;5031102;28;101953;-65
2022/04/12 02:12:08;;;;;;;4.60;4.20;;;;;;;2.56;100.00;96166.88;5031036;28;105216;-65
2022/04/12 02:14:37;;;;;;;5.13;4.63;;;;;;;2.69;100.00;96161.56;5030199;28;106376;-65
2022/04/12 02:17:06;;;;;;;5.30;4.47;;;;;;;2.84;100.00;96166.59;5031078;28;102011;-65
2022/04/12 02:19:33;;;;;;;5.93;4.63;;;;;;;2.89;100.00;96156.25;5032438;27;102963;-65
2022/04/12 02:22:00;;;;;;;6.70;5.10;;;;;;;2.96;100.00;96159.66;5035412;28;102745;-65
2022/04/12 02:24:28;;;;;;;6.27;4.33;;;;;;;2.89;100.00;96159.69;5031169;28;102528;-65
2022/04/12 02:26:55;;;;;;;4.67;4.20;;;;;;;2.80;100.00;96158.28;5030022;28;104197;-65
2022/04/12 02:29:22;;;;;;;4.67;4.27;;;;;;;2.74;100.00;96153.09;5032342;28;102270;-65
2022/04/12 02:31:48;;;;;;;4.87;4.17;;;;;;;2.76;100.00;96143.16;5030825;28;105296;-65
2022/04/12 02:34:17;;;;;;;4.97;3.93;;;;;;;2.87;100.00;96145.16;5029958;28;105566;-65
2022/04/12 02:36:44;;;;;;;6.03;4.53;;;;;;;2.91;100.00;96148.97;5030094;28;101912;-65
2022/04/12 02:39:12;;;;;;;6.47;5.73;;;;;;;2.94;100.00;96153.78;5030502;28;105671;-65
2022/04/12 02:41:39;;;;;;;5.93;5.33;;;;;;;2.81;100.00;96156.47;5029926;28;105286;-65
2022/04/12 02:44:06;;;;;;;6.67;5.97;;;;;;;2.85;100.00;96155.84;5034217;28;101818;-65
2022/04/12 02:46:33;;;;;;;6.40;5.80;;;;;;;2.70;100.00;96146.63;5029733;28;105933;-65
2022/04/12 02:49:00;;;;;;;6.53;5.20;;;;;;;2.78;100.00;96149.03;5030262;28;101947;-65
2022/04/12 02:51:29;;;;;;;5.77;5.27;;;;;;;2.78;100.00;96143.78;5032045;28;102910;-65
2022/04/12 02:53:56;;;;;;;5.93;4.80;;;;;;;2.83;100.00;96151.81;5029850;28;105707;-65
2022/04/12 02:56:23;;;;;;;5.93;5.43;;;;;;;2.81;100.00;96161.72;5031301;28;101829;-65
2022/04/12 02:58:50;;;;;;;5.53;5.10;;;;;;;2.81;100.00;96169.59;5031715;28;102960;-65
2022/04/12 03:01:18;;;;;;;6.07;5.47;;;;;;;2.95;100.00;96165.94;5029149;28;105836;-65
2022/04/12 03:03:45;;;;;;;6.00;5.40;;;;;;;3.01;100.00;96159.84;5033750;28;101828;-65
2022/04/12 03:06:12;;;;;;;5.63;5.13;;;;;;;3.06;100.00;96160.81;5029723;28;105891;-65
2022/04/12 03:08:41;;;;;;;6.63;5.97;;;;;;;3.12;100.00;96167.06;5030048;28;101902;-65
2022/04/12 03:11:09;;;;;;;5.90;5.30;;;;;;;3.10;100.00;96164.66;5030177;28;105140;-65
2022/04/12 03:13:36;;;;;;;5.70;5.20;;;;;;;2.94;100.00;96159.88;5029486;28;105542;-65
2022/04/12 03:16:03;;;;;;;5.50;5.00;;;;;;;2.71;100.00;96164.00;5030102;28;102370;-65
2022/04/12 03:18:30;;;;;;;6.10;4.83;;;;;;;2.74;100.00;96159.13;5031334;28;102384;-65
2022/04/12 03:20:58;;;;;;;5.33;4.70;;;;;;;2.72;100.00;96161.16;5029151;28;105533;-65
2022/04/12 03:23:25;;;;;;;5.03;4.53;;;;;;;2.23;100.00;96152.19;5028304;28;101853;-65
2022/04/12 03:25:54;;;;;;;5.37;4.10;;;;;;;2.32;100.00;96159.66;5032559;28;105672;-65
2022/04/12 03:28:20;;;;;;;5.53;5.03;;;;;;;2.28;100.00;96158.44;5029733;28;101909;-65
2022/04/12 03:30:48;;;;;;;5.30;4.70;;;;;;;2.35;100.00;96159.22;5029874;28;105201;-65
2022/04/12 03:33:15;;;;;;;6.10;4.80;;;;;;;2.14;100.00;96161.31;5029088;28;105882;-65
2022/04/12 03:35:43;;;;;;;5.33;4.83;;;;;;;2.20;100.00;96163.09;5031173;28;101792;-65
2022/04/12 03:38:09;;;;;;;5.57;4.80;;;;;;;2.22;100.00;96161.06;5029875;28;105461;-65
2022/04/12 03:40:38;;;;;;;5.57;4.63;;;;;;;2.21;100.00;96173.41;5028917;28;105663;-65
2022/04/12 03:43:07;;;;;;;7.00;5.57;;;;;;;2.33;100.00;96173.56;5029563;28;101923;-65
2022/04/12 03:45:35;;;;;;;7.57;5.10;;;;;;;2.31;100.00;96170.34;5029407;28;103636;-65
2022/04/12 03:48:03;;;;;;;7.33;5.20;;;;;;;2.21;100.00;96167.34;5031266;28;105306;-65
2022/04/12 03:50:31;;;;;;;5.57;5.07;;;;;;;2.25;100.00;96169.34;5029639;28;105678;-65
2022/04/12 03:52:58;;;;;;;6.20;5.60;;;;;;;2.17;100.00;96156.44;5029056;28;103974;-65
2022/04/12 03:55:31;;;;;;;5.93;5.00;;;;;;;2.01;100.00;96156.03;5028729;28;102017;-65
2022/04/12 03:57:59;;;;;;;6.27;5.40;;;;;;;2.15;100.00;96162.91;5029367;28;104826;-65
2022/04/12 04:00:29;;;;;;;8.67;6.07;;;;;;;1.99;100.00;96153.66;5028450;28;105874;-65
2022/04/12 04:02:57;;;;;;;5.77;5.07;;;;;;;1.79;100.00;96162.50;5029472;28;101823;-65
2022/04/12 04:05:24;;;;;;;6.73;5.23;;;;;;;2.00;100.00;96152.63;5029300;28;104818;-65
2022/04/12 04:07:51;;;;;;;6.93;5.27;;;;;;;2.01;100.00;96177.84;5029915;28;103413;-65
2022/04/12 04:10:20;;;;;;;6.50;5.90;;;;;;;1.90;100.00;96185.50;5032538;28;101849;-65
2022/04/12 04:12:47;;;;;;;6.80;6.10;;;;;;;2.01;100.00;96188.34;5030275;28;102798;-65
2022/04/12 04:15:14;;;;;;;6.77;6.07;;;;;;;2.09;100.00;96184.72;5029260;28;101925;-65
2022/04/12 04:17:44;;;;;;;7.30;6.60;;;;;;;2.11;100.00;96177.44;5028001;28;105228;-65
2022/04/12 04:20:12;;;;;;;7.83;6.43;;;;;;;2.14;100.00;96179.66;5028711;27;106216;-65
2022/04/12 04:22:40;;;;;;;7.63;6.30;;;;;;;2.11;100.00;96180.88;5037150;27;102480;-65
2022/04/12 04:25:09;;;;;;;5.97;5.37;;;;;;;2.04;100.00;96171.38;5035339;27;103893;-65
2022/04/12 04:27:36;;;;;;;6.57;5.67;;;;;;;2.08;100.00;96177.84;5028156;28;105271;-65
2022/04/12 04:30:05;;;;;;;5.73;5.23;;;;;;;2.07;100.00;96192.78;5028963;28;102495;-65
2022/04/12 04:32:32;;;;;;;7.60;6.33;;;;;;;1.93;100.00;96187.72;5031651;28;105141;-65
2022/04/12 04:35:01;;;;;;;6.60;6.00;;;;;;;1.78;100.00;96192.34;5028770;28;101828;-65
2022/04/12 04:37:28;;;;;;;7.10;5.80;;;;;;;1.83;100.00;96192.56;5028819;28;105397;-65
2022/04/12 04:39:56;;;;;;;6.10;5.50;;;;;;;1.82;100.00;96191.78;5027981;28;103749;-65
2022/04/12 04:42:24;;;;;;;6.73;6.03;;;;;;;1.85;100.00;96193.16;5028675;28;102007;-65
2022/04/12 04:44:52;;;;;;;7.43;6.73;;;;;;;1.83;100.00;96189.94;5028492;28;105204;-65
2022/04/12 04:47:19;;;;;;;7.13;5.63;;;;;;;1.82;100.00;96188.34;5029325;28;103220;-65
2022/04/12 04:49:46;;;;;;;8.47;6.03;;;;;;;1.62;100.00;96187.50;5029971;27;101784;-65
2022/04/12 04:52:14;;;;;;;6.30;5.63;;;;;;;1.48;100.00;96191.13;5028524;28;103710;-65
2022/04/12 04:54:41;;;;;;;6.33;5.53;;;;;;;1.68;100.00;96198.00;5030312;28;102011;-65
2022/04/12 04:57:08;;;;;;;6.10;5.50;;;;;;;1.90;100.00;96195.97;5028562;28;104801;-65
2022/04/12 04:59:35;;;;;;;6.27;5.67;;;;;;;1.94;100.00;96197.22;5027284;28;105595;-65
2022/04/12 05:02:02;;;;;;;5.87;5.20;;;;;;;2.08;100.00;96199.63;5028255;28;102359;-65
2022/04/12 05:04:28;;;;;;;5.43;5.00;;;;;;;2.17;100.00;96192.34;5028669;28;104807;-65
2022/04/12 05:06:56;;;;;;;6.87;5.33;;;;;;;2.14;100.00;96190.94;5029045;28;103063;-65
2022/04/12 05:09:26;;;;;;;6.00;5.40;;;;;;;2.31;100.00;96186.91;5028350;28;102557;-65
2022/04/12 05:11:53;;;;;;;6.33;5.30;;;;;;;2.45;100.00;96183.25;5028368;28;104206;-65
2022/04/12 05:14:20;;;;;;;6.73;5.60;;;;;;;2.56;100.00;96181.81;5031204;28;105014;-65
2022/04/12 05:16:46;;;;;;;6.97;5.60;;;;;;;2.54;100.00;96189.91;5028153;28;105545;-65
2022/04/12 05:19:13;;;;;;;6.87;6.17;;;;;;;2.63;100.00;96193.09;5027518;28;105490;-65
2022/04/12 05:21:41;;;;;;;7.30;6.00;;;;;;;2.80;100.00;96189.78;5028402;28;102329;-65
2022/04/12 05:24:08;;;;;;;7.80;6.80;;;;;;;2.93;100.00;96194.19;5028196;28;105196;-65
2022/04/12 05:26:37;;;;;;;7.20;6.50;;;;;;;3.14;100.00;96186.03;5027480;28;103899;-65
2022/04/12 05:29:05;;;;;;;7.53;6.23;;;;;;;3.14;100.00;96191.28;5027808;28;101912;-65
2022/04/12 05:31:33;;;;;;;7.17;6.47;;;;;;;3.34;100.00;96194.66;5027904;28;105817;-65
2022/04/12 05:34:00;;;;;;;8.03;6.37;;;;;;;3.42;100.00;96205.72;5025271;28;105234;-65
2022/04/12 05:36:27;;;;;;;7.57;6.40;;;;;;;3.37;100.00;96202.09;5031605;28;102040;-65
2022/04/12 05:38:56;;;;;;;9.10;6.60;;;;;;;3.38;100.00;96203.72;5026959;28;105878;-65
2022/04/12 05:41:24;;;;;;;7.83;7.03;;;;;;;3.58;100.00;96201.78;5027908;28;101938;-65
2022/04/12 05:43:52;;;;;;;8.03;7.20;;;;;;;3.75;100.00;96208.97;5028062;28;104888;-65
2022/04/12 05:46:19;;;;;;;11.77;7.13;;;;;;;3.94;100.00;96204.59;5027391;28;105364;-65
2022/04/12 05:48:46;;;;;;;8.37;7.53;;;;;;;3.99;100.00;96204.75;5029081;28;101789;-65
2022/04/12 05:51:13;;;;;;;13.00;7.30;;;;;;;3.97;100.00;96198.88;5027734;28;103867;-65
2022/04/12 05:53:40;;;;;;;10.17;7.97;;;;;;;4.20;100.00;96210.44;5027240;28;105162;-65
2022/04/12 05:56:07;;;;;;;13.87;9.97;;;;;;;4.22;100.00;96212.88;5027331;28;101898;-65
2022/04/12 05:58:35;;;;;;;10.10;9.03;;;;;;;4.39;100.00;96201.59;5029656;28;105106;-65
2022/04/12 06:01:04;;;;;;;9.40;8.30;;;;;;;4.76;100.00;96205.06;5028873;27;101801;-65
2022/04/12 06:03:31;;;;;;;9.93;8.47;;;;;;;4.93;100.00;96206.91;5027866;28;104802;-65
2022/04/12 06:05:58;;;;;;;9.03;8.13;;;;;;;5.24;100.00;96205.94;5026905;28;105296;-65
2022/04/12 06:08:25;;;;;;;8.57;7.70;;;;;;;5.42;100.00;96205.91;5029183;28;101963;-65
2022/04/12 06:10:53;;;;;;;11.43;8.20;;;;;;;5.67;100.00;96202.09;5028568;27;105595;-65
2022/04/12 06:13:20;;;;;;;9.20;8.27;;;;;;;5.79;100.00;96210.88;5031923;28;103106;-65
2022/04/12 06:15:47;;;;;;;9.57;7.47;;;;;;;5.90;100.00;96204.84;5031057;28;101897;-65
2022/04/12 06:18:15;;;;;;;7.30;6.57;;;;;;;6.05;100.00;96207.88;5031030;28;104850;-65
2022/04/12 06:20:42;;;;;;;12.90;7.03;;;;;;;6.17;100.00;96207.91;5033579;28;105490;-65
2022/04/12 06:23:11;;;;;;;9.10;6.93;;;;;;;6.33;100.00;96194.03;5030986;28;106068;-65
2022/04/12 06:25:39;;;;;;;7.97;6.13;;;;;;;6.52;100.00;96203.47;5029732;28;105335;-65
2022/04/12 06:28:08;;;;;;;5.53;5.03;;;;;;;6.57;100.00;96200.94;5030895;28;101920;-65
2022/04/12 06:30:36;;;;;;;5.27;4.43;;;;;;;6.61;100.00;96202.88;5030952;28;105019;-65
2022/04/12 06:33:05;;;;;;;6.17;4.77;;;;;;;6.82;100.00;96210.22;5031748;28;103088;-65
2022/04/12 06:35:34;;;;;;;5.57;4.27;;;;;;;6.80;100.00;96207.03;5030486;28;102176;-65
2022/04/12 06:38:04;;;;;;;5.17;3.80;;;;;;;6.83;100.00;96224.25;5032041;28;102320;-65
2022/04/12 06:40:34;;;;;;;8.33;4.60;;;;;;;6.97;100.00;96220.31;5031290;28;104239;-65
2022/04/12 06:43:01;;;;;;;6.00;4.80;;;;;;;7.01;100.00;96218.81;5035699;27;101704;-65
2022/04/12 06:45:29;;;;;;;8.43;6.30;;;;;;;6.93;100.00;96227.13;5029932;28;105655;-65
2022/04/12 06:47:58;;;;;;;6.60;5.90;;;;;;;6.82;100.00;96225.28;5030470;28;101915;-65
2022/04/12 06:50:26;;;;;;;6.23;5.63;;;;;;;6.78;100.00;96217.03;5031311;27;102941;-65
2022/04/12 06:52:56;;;;;;;6.27;5.70;;;;;;;6.97;100.00;96213.19;5031472;28;103028;-65
2022/04/12 06:55:24;;;;;;;8.97;5.23;;;;;;;7.20;100.00;96218.44;5029953;28;102149;-65
2022/04/12 06:57:51;;;;;;;6.03;5.07;;;;;;;7.35;100.00;96218.75;5030397;28;105563;-65
2022/04/12 07:00:19;;;;;;;7.10;5.50;;;;;;;7.40;100.00;96207.47;5029373;28;103886;-65
2022/04/12 07:02:47;;;;;;;8.30;5.80;;;;;;;7.64;100.00;96211.66;5035116;27;101684;-65
2022/04/12 07:05:14;;;;;;;6.43;5.70;;;;;;;7.53;100.00;96201.94;5031019;27;102644;-65
2022/04/12 07:07:43;;;;;;;6.20;5.70;;;;;;;7.47;100.00;96202.88;5031757;28;102115;-65
2022/04/12 07:10:13;;;;;;;6.37;5.70;;;;;;;7.57;100.00;96197.75;5030191;28;105263;-65
2022/04/12 07:12:40;;;;;;;6.77;6.10;;;;;;;7.75;100.00;96193.06;5031016;28;102648;-65
2022/04/12 07:15:09;;;;;;;6.00;5.40;;;;;;;7.72;100.00;96198.84;5030132;28;102845;-65
2022/04/12 07:17:35;;;;;;;6.53;5.90;;;;;;;8.05;100.00;96198.91;5031551;28;102467;-65
2022/04/12 07:20:03;;;;;;;5.50;5.00;;;;;;;8.38;100.00;96203.47;5029381;28;105548;-65
2022/04/12 07:22:30;;;;;;;5.90;5.30;;;;;;;8.22;100.00;96196.31;5029715;27;101953;-65
2022/04/12 07:24:58;;;;;;;6.80;4.80;;;;;;;8.57;100.00;96199.53;5032513;28;104929;-65
2022/04/12 07:27:26;;;;;;;4.27;3.93;;;;;;;8.77;100.00;96194.53;5029851;28;101856;-65
2022/04/12 07:29:56;;;;;;;4.27;3.83;;;;;;;8.84;100.00;96195.94;5031516;28;102317;-65
2022/04/12 07:32:22;;;;;;;5.30;4.80;;;;;;;8.73;100.00;96201.38;5028141;28;105529;-65
2022/04/12 07:34:49;;;;;;;5.33;4.83;;;;;;;9.25;100.00;96202.59;5029470;28;101935;-65
2022/04/12 07:37:16;;;;;;;5.47;4.97;;;;;;;9.35;100.00;96197.44;5029821;28;105530;-65
2022/04/12 07:39:43;;;;;;;5.23;4.40;;;;;;;9.51;100.00;96191.25;5028966;28;106258;-65
2022/04/12 07:42:10;;;;;;;4.57;4.17;;;;;;;9.62;100.00;96185.81;5029269;28;101942;-65
2022/04/12 07:44:39;;;;;;;5.30;4.40;;;;;;;9.75;100.00;96187.28;5029732;28;105253;-65
2022/04/12 07:47:08;;;;;;;4.97;4.57;;;;;;;9.96;100.00;96181.09;5032251;28;105354;-65
2022/04/12 07:49:35;;;;;;;5.73;4.30;;;;;;;9.92;100.00;96182.69;5029398;28;105693;-65
2022/04/12 07:52:02;;;;;;;4.70;4.20;;;;;;;10.04;100.00;96180.69;5029037;28;105308;-65
2022/04/12 07:54:29;;;;;;;4.87;4.43;;;;;;;10.32;100.00;96180.41;5029336;28;101867;-65
2022/04/12 07:56:56;;;;;;;7.90;4.40;;;;;;;10.07;100.00;96180.19;5029245;28;104072;-65
2022/04/12 07:59:23;;;;;;;5.80;4.43;;;;;;;10.62;100.00;96177.97;5030138;28;102827;-65
2022/04/12 08:01:52;;;;;;;5.30;4.57;;;;;;;10.35;100.00;96185.22;5030582;27;102019;-65
2022/04/12 08:04:19;;;;;;;6.53;5.03;;;;;;;10.52;100.00;96180.59;5029405;28;103687;-65
2022/04/12 08:06:46;;;;;;;5.73;4.53;;;;;;;10.93;100.00;96177.13;5030147;28;103195;-65
2022/04/12 08:09:13;;;;;;;7.37;4.60;;;;;;;10.45;100.00;96178.13;5066432;27;102535;-65
2022/04/12 08:11:40;;;;;;;5.47;4.67;;;;;;;10.53;100.00;96174.19;5029958;28;102892;-65
2022/04/12 08:14:08;;;;;;;5.37;4.80;;;;;;;10.66;100.00;96176.41;5029232;28;101908;-65
2022/04/12 08:16:35;;;;;;;5.57;4.93;;;;;;;11.10;100.00;96169.75;5026952;28;105225;-65
2022/04/12 08:19:04;;;;;;;4.97;4.53;;;;;;;11.67;100.00;96166.03;5028566;28;104991;-65
2022/04/12 08:21:33;;;;;;;4.57;4.00;;;;;;;11.67;100.00;96157.25;5028927;28;101939;-65
2022/04/12 08:24:00;;;;;;;5.43;4.40;;;;;;;11.84;100.00;96168.47;5029118;28;105573;-65
2022/04/12 08:26:27;;;;;;;4.27;3.93;;;;;;;11.59;100.00;96165.75;5011740;28;105179;-65
2022/04/12 08:28:54;;;;;;;4.60;4.20;;;;;;;11.46;100.00;96155.56;5030395;27;102201;-65
2022/04/12 08:31:21;;;;;;;3.80;3.50;;;;;;;11.88;100.00;96153.59;5032934;27;103015;-65
2022/04/12 08:33:49;;;;;;;3.67;3.37;;;;;;;12.16;100.00;96150.41;5029576;27;101872;-65
2022/04/12 08:36:20;;;;;;;6.30;3.97;;;;;;;11.95;100.00;96146.13;5028731;28;105350;-65
2022/04/12 08:38:49;;;;;;;3.60;3.30;;;;;;;12.30;100.00;96149.63;5029765;27;102643;-65
2022/04/12 08:41:16;;;;;;;3.60;3.30;;;;;;;12.72;100.00;96152.81;5029882;27;101946;-65
2022/04/12 08:43:43;;;;;;;3.63;3.23;;;;;;;12.45;100.00;96159.47;5030427;28;102468;-65
2022/04/12 08:46:11;;;;;;;3.50;3.20;;;;;;;12.77;100.00;96151.97;5029639;27;102621;-65
2022/04/12 08:48:39;;;;;;;2.90;2.70;;;;;;;13.17;100.00;96159.91;5030116;27;101894;-65
2022/04/12 08:51:07;;;;;;;3.23;2.93;;;;;;;13.08;100.00;96161.56;5030056;27;102849;-65
2022/04/12 08:53:36;;;;;;;3.10;2.90;;;;;;;13.23;100.00;96148.97;5033119;28;103043;-65
2022/04/12 08:56:03;;;;;;;3.00;2.70;;;;;;;13.49;100.00;96147.78;5028019;28;104123;-65
2022/04/12 08:58:30;;;;;;;3.30;3.00;;;;;;;13.48;100.00;96150.72;5027951;28;105071;-65
2022/04/12 09:00:58;;;;;;;4.47;2.90;;;;;;;13.29;100.00;96141.72;5061992;27;102245;-65
2022/04/12 09:03:25;;;;;;;2.67;2.47;;;;;;;13.61;100.00;96145.59;5028374;28;105939;-65
2022/04/12 09:05:54;;;;;;;3.23;2.70;;;;;;;13.90;100.00;96140.38;5027853;28;105538;-65
2022/04/12 09:08:25;;;;;;;5.63;3.00;;;;;;;14.06;100.00;96136.53;5028441;28;101976;-65
2022/04/12 09:10:58;;;;;;;3.83;2.37;;;;;;;13.74;100.00;96139.63;5028221;28;105315;-65
2022/04/12 09:13:25;;;;;;;6.53;2.60;;;;;;;13.94;100.00;96134.19;5031109;28;105234;-65
2022/04/12 09:15:52;;;;;;;2.53;2.33;;;;;;;14.20;100.00;96132.16;5028085;28;104988;-65
2022/04/12 09:18:34;;;;;;;2.43;2.10;;;;;;;14.73;97.63;96136.53;5027821;28;105044;-65
2022/04/12 09:21:11;;;;;;;3.30;2.00;;;;;;;15.37;99.00;96128.91;5027949;28;101789;-65
2022/04/12 09:23:38;;;;;;;2.43;2.20;;;;;;;15.04;96.53;96135.94;5028376;28;105035;-64
2022/04/12 09:26:07;;;;;;;3.07;2.27;;;;;;;15.33;97.72;96125.22;5028897;28;102822;-65
2022/04/12 09:28:40;;;;;;;2.63;2.37;;;;;;;15.59;96.72;96134.53;5029282;28;101768;-65
2022/04/12 09:31:14;;;;;;;4.60;2.40;;;;;;;15.46;99.30;96129.84;5029568;27;102877;-65
2022/04/12 09:33:43;;;;;;;2.97;2.60;;;;;;;15.59;95.51;96129.19;5027663;28;104192;-65
2022/04/12 09:36:11;;;;;;;2.60;2.40;;;;;;;15.60;100.00;96128.09;5031507;28;101916;-65
2022/04/12 09:38:39;;;;;;;3.23;2.10;;;;;;;15.57;97.34;96124.09;5027333;28;105209;-65
2022/04/12 09:41:16;;;;;;;3.20;2.40;;;;;;;15.81;100.00;96122.16;5027785;28;101848;-65
2022/04/12 09:43:55;;;;;;;2.63;2.30;;;;;;;16.13;96.94;96113.41;5028036;28;104912;-65
2022/04/12 09:46:22;;;;;;;3.27;2.50;;;;;;;16.42;93.49;96122.09;5029302;27;105345;-65
2022/04/12 09:48:51;;;;;;;4.13;2.20;;;;;;;16.76;92.59;96112.63;5031524;28;101895;-65
2022/04/12 09:51:20;;;;;;;3.80;2.17;;;;;;;16.23;87.47;96113.22;5031374;28;104786;-65
2022/04/12 09:53:47;;;;;;;2.27;1.77;;;;;;;16.72;87.05;96108.94;5031016;28;104313;-65
2022/04/12 09:56:22;;;;;;;2.90;2.10;;;;;;;16.82;86.87;96107.97;5030828;28;101999;-65
2022/04/12 09:58:51;;;;;;;3.30;2.20;;;;;;;17.64;86.12;96101.53;5034001;28;104926;-65
2022/04/12 10:01:19;;;;;;;3.03;1.90;;;;;;;18.23;84.53;96101.28;5030905;28;101905;-65
2022/04/12 10:03:49;;;;;;;2.53;1.80;;;;;;;18.57;74.94;96088.06;5030853;28;103674;-65
2022/04/12 10:06:19;;;;;;;1.50;1.40;;;;;;;18.52;69.92;96085.53;5030568;28;105328;-65
2022/04/12 10:08:48;;;;;;;3.03;1.40;;;;;;;18.91;61.08;96088.28;5031268;28;102004;-65
2022/04/12 10:11:17;;;;;;;1.20;1.10;;;;;;;19.23;53.86;96077.97;5031169;28;103766;-65
2022/04/12 10:13:44;;;;;;;2.07;1.30;;;;;;;19.44;51.45;96073.63;5030290;28;105830;-65
2022/04/12 10:16:11;;;;;;;2.07;1.13;;;;;;;19.61;49.58;96065.56;5030888;28;101753;-65
2022/04/12 10:18:39;;;;;;;2.20;1.00;;;;;;;19.62;50.22;96071.75;5031110;28;106542;-65
2022/04/12 10:21:06;;;;;;;1.60;1.50;;;;;;;19.86;53.51;96056.72;5033759;28;105330;-65
2022/04/12 10:23:34;;;;;;;1.13;1.03;;;;;;;19.97;50.01;96063.38;5065053;27;105358;-65
2022/04/12 10:26:03;;;;;;;1.40;1.30;;;;;;;19.98;48.15;96064.16;5030294;28;105457;-65
2022/04/12 10:28:32;;;;;;;0.93;0.90;;;;;;;20.13;47.99;96061.84;5030702;28;101894;-65
2022/04/12 10:31:04;;;;;;;0.90;0.90;;;;;;;20.46;48.01;96062.09;5030569;28;105355;-65
2022/04/12 10:33:33;;;;;;;1.10;0.90;;;;;;;20.27;47.51;96057.03;5030191;28;105547;-65
2022/04/12 10:36:02;;;;;;;1.03;0.97;;;;;;;20.57;44.54;96053.34;5030773;28;101901;-65
2022/04/12 10:38:40;;;;;;;1.10;1.00;;;;;;;21.08;45.14;96038.94;5030579;28;105220;-65
2022/04/12 10:41:24;;;;;;;2.30;0.90;;;;;;;20.90;44.28;96042.78;5031496;28;103182;-65
2022/04/12 10:43:58;;;;;;;1.20;0.90;;;;;;;21.32;44.34;96036.41;5035290;27;101745;-65
2022/04/12 10:46:25;;;;;;;1.47;0.80;;;;;;;21.24;43.73;96038.03;5030052;28;103741;-65
2022/04/12 10:48:56;;;;;;;1.37;1.00;;;;;;;21.28;43.73;96027.34;5031990;27;101815;-65
2022/04/12 10:51:39;;;;;;;2.20;0.80;;;;;;;21.71;46.06;96025.22;5031847;28;102994;-65
2022/04/12 10:54:06;;;;;;;1.43;0.90;;;;;;;21.42;43.54;96022.50;5031193;28;103203;-65
2022/04/12 10:56:33;;;;;;;2.57;1.00;;;;;;;21.67;42.80;96016.13;5029671;27;102293;-65
2022/04/12 10:59:02;;;;;;;1.27;0.70;;;;;;;21.37;42.66;96017.28;5031510;28;102388;-65
2022/04/12 11:01:32;;;;;;;1.13;0.80;;;;;;;21.70;42.77;96015.50;5029533;28;104279;-65
2022/04/12 11:04:01;;;;;;;1.00;0.60;;;;;;;21.85;42.00;96013.00;5031859;28;101706;-65
2022/04/12 11:06:30;;;;;;;1.23;1.00;;;;;;;21.50;40.96;96011.63;5034364;27;102543;-65
2022/04/12 11:09:08;;;;;;;1.13;0.80;;;;;;;21.87;40.45;96004.56;5031591;27;101883;-65
2022/04/12 11:11:40;;;;;;;0.90;0.90;;;;;;;21.61;40.19;96006.63;5031765;28;102981;-65
2022/04/12 11:14:26;;;;;;;0.80;0.80;;;;;;;21.88;39.08;96003.44;5030979;28;102654;-65
2022/04/12 11:16:57;;;;;;;0.80;0.80;;;;;;;22.00;39.13;96003.47;5031589;28;101697;-65
2022/04/12 11:19:25;;;;;;;0.90;0.90;;;;;;;22.06;39.61;96004.88;5031233;28;102440;-65
2022/04/12 11:22:01;;;;;;;1.00;0.90;;;;;;;22.18;38.56;95997.59;5030854;28;102605;-65
2022/04/12 11:24:29;;;;;;;1.43;0.80;;;;;;;22.04;39.28;95999.78;5031400;28;102264;-65
2022/04/12 11:27:03;;;;;;;1.23;0.70;;;;;;;22.31;36.27;96001.13;5034023;28;102874;-65
2022/04/12 11:29:33;;;;;;;1.47;0.80;;;;;;;22.60;36.24;95992.88;5031081;27;102154;-65
2022/04/12 11:32:01;;;;;;;0.60;0.60;;;;;;;22.78;36.86;95994.28;5031324;28;102497;-65